Previous Day
Next Day
Current Day
SHEF ID: NRCO2 Canadian River at Norman, OK
STATION TYPE:
STAGE RIV-FLOW BAT-LOAD
ft cfs volt
Ccp-Rev Ccp-Rev Ccp-Rev
(US/Central)
04/19 00:00 86.98 199 12.49
04/19 01:00 86.98 199 12.49
04/19 02:00 86.98 199 12.41
04/19 03:00 86.98 199 12.41
04/19 04:00 86.98 199 12.41
04/19 05:00 86.98 199 12.33
04/19 06:00 86.98 199 12.33
04/19 07:00 86.98 199 12.25
04/19 08:00 86.98 199 12.25
04/19 09:00 86.94 184 12.33
04/19 10:00 86.86 156 12.65
04/19 11:00 86.87 160 12.89
04/19 12:00 86.86 156 13.76
04/19 13:00 86.88 163 13.76
04/19 14:00 86.91 173 13.76
04/19 15:00 86.85 153 13.44
04/19 16:00 86.87 160 13.29
04/19 17:00 86.82 143 13.13
04/19 18:00 86.85 153 12.81
04/19 19:00 86.93 181 12.97
04/19 20:00 86.89 166 12.65
04/19 21:00 86.88 163 12.57
04/19 22:00 86.88 163 12.57
04/19 23:00 86.89 166 12.49